createdAt,value
2019-04-28T00:02:27.679Z,99837.48
2019-04-28T00:04:58.292Z,99840.34
2019-04-28T00:07:28.974Z,99835.02
2019-04-28T00:10:01.085Z,99835.40
2019-04-28T00:12:31.790Z,99835.23
2019-04-28T00:15:02.564Z,99832.07
2019-04-28T00:17:34.894Z,99822.06
2019-04-28T00:20:08.145Z,99831.16
2019-04-28T00:22:44.368Z,99833.34
2019-04-28T00:25:16.686Z,99823.67
2019-04-28T00:27:47.537Z,99822.98
2019-04-28T00:30:17.810Z,99828.06
2019-04-28T00:32:48.528Z,99834.61
2019-04-28T00:35:19.406Z,99837.84
2019-04-28T00:37:51.659Z,99839.78
2019-04-28T00:40:21.795Z,99840.56
2019-04-28T00:42:52.235Z,99838.01
2019-04-28T00:45:22.492Z,99840.02
2019-04-28T00:47:52.708Z,99843.33
2019-04-28T00:50:23.303Z,99841.96
2019-04-28T00:52:53.990Z,99847.05
2019-04-28T00:55:24.511Z,99843.64
2019-04-28T00:57:54.816Z,99840.70
2019-04-28T01:00:26.745Z,99832.84
2019-04-28T01:02:57.316Z,99830.21
2019-04-28T01:05:27.642Z,99828.52
2019-04-28T01:07:57.858Z,99829.05
2019-04-28T01:10:30.876Z,99830.21
2019-04-28T01:13:02.149Z,99829.67
2019-04-28T01:15:37.006Z,99829.77
2019-04-28T01:18:10.460Z,99823.59
2019-04-28T01:20:40.799Z,99831.54
2019-04-28T01:23:11.178Z,99830.91
2019-04-28T01:25:41.533Z,99820.49
2019-04-28T01:28:11.925Z,99821.73
2019-04-28T01:30:50.103Z,99829.06
2019-04-28T01:33:33.868Z,99814.02
2019-04-28T01:36:05.023Z,99818.42
2019-04-28T01:38:35.429Z,99825.83
2019-04-28T01:41:05.665Z,99824.66
2019-04-28T01:43:35.886Z,99812.63
2019-04-28T01:46:06.192Z,99802.98
2019-04-28T01:48:36.797Z,99799.95
2019-04-28T01:51:07.064Z,99803.96
2019-04-28T01:53:39.465Z,99803.05
2019-04-28T01:56:10.648Z,99801.89
2019-04-28T01:58:41.020Z,99809.89
2019-04-28T02:01:12.161Z,99801.88
2019-04-28T02:03:42.443Z,99811.05
2019-04-28T02:06:12.676Z,99812.91
2019-04-28T02:08:42.894Z,99813.99
2019-04-28T02:11:13.130Z,99810.20
2019-04-28T02:13:43.369Z,99818.00
2019-04-28T02:16:13.602Z,99820.16
2019-04-28T02:18:43.812Z,99824.63
2019-04-28T02:21:31.614Z,99824.09
2019-04-28T02:24:20.002Z,99820.63
2019-04-28T02:26:52.648Z,99819.08
2019-04-28T02:29:22.537Z,99826.87
2019-04-28T02:31:53.445Z,99825.94
2019-04-28T02:34:23.753Z,99829.95
2019-04-28T02:36:54.152Z,99824.25
2019-04-28T02:39:26.053Z,99824.25
2019-04-28T02:41:56.360Z,99825.55
2019-04-28T02:44:30.684Z,99820.31
2019-04-28T02:47:00.736Z,99815.14
2019-04-28T02:49:32.971Z,99812.44
2019-04-28T02:52:10.682Z,99824.58
2019-04-28T02:54:40.727Z,99823.80
2019-04-28T02:57:11.428Z,99829.11
2019-04-28T02:59:44.629Z,99829.28
2019-04-28T03:02:14.239Z,99828.89
2019-04-28T03:04:45.072Z,99827.34
2019-04-28T03:07:15.369Z,99831.13
2019-04-28T03:09:46.212Z,99829.81
2019-04-28T03:12:16.612Z,99829.67
2019-04-28T03:14:46.965Z,99832.20
2019-04-28T03:17:17.183Z,99830.03
2019-04-28T03:19:51.352Z,99831.42
2019-04-28T03:22:20.541Z,99834.05
2019-04-28T03:24:53.145Z,99833.27
2019-04-28T03:27:23.940Z,99831.71
2019-04-28T03:29:56.270Z,99836.11
2019-04-28T03:32:53.561Z,99825.16
2019-04-28T03:35:22.773Z,99832.78
2019-04-28T03:37:51.300Z,99825.98
2019-04-28T03:40:21.737Z,99835.16
2019-04-28T03:42:52.312Z,99844.02
2019-04-28T03:45:24.710Z,99838.23
2019-04-28T03:47:54.923Z,99842.84
2019-04-28T03:50:25.572Z,99843.91
2019-04-28T03:52:55.856Z,99843.06
2019-04-28T03:55:26.701Z,99850.71
2019-04-28T03:57:57.016Z,99850.39
2019-04-28T04:00:27.676Z,99854.25
2019-04-28T04:03:00.603Z,99858.19
2019-04-28T04:05:30.812Z,99852.77
2019-04-28T04:08:01.738Z,99862.33
2019-04-28T04:10:34.775Z,99863.44
2019-04-28T04:13:10.984Z,99865.59
2019-04-28T04:15:50.675Z,99864.14
2019-04-28T04:18:35.745Z,99871.16
2019-04-28T04:21:05.968Z,99867.15
2019-04-28T04:23:36.382Z,99872.64
2019-04-28T04:26:06.624Z,99878.38
2019-04-28T04:28:36.862Z,99885.19
2019-04-28T04:31:07.098Z,99880.58
2019-04-28T04:33:40.768Z,99887.52
2019-04-28T04:36:11.558Z,99888.30
2019-04-28T04:38:45.917Z,99892.45
2019-04-28T04:41:14.272Z,99893.23
2019-04-28T04:43:44.600Z,99890.45
2019-04-28T04:46:21.881Z,99888.83
2019-04-28T04:48:51.724Z,99890.45
2019-04-28T04:51:22.062Z,99890.00
2019-04-28T04:53:52.696Z,99881.81
2019-04-28T04:56:23.333Z,99884.97
2019-04-28T04:58:53.749Z,99883.05
2019-04-28T05:01:25.959Z,99887.52
2019-04-28T05:03:59.552Z,99898.19
2019-04-28T05:06:34.554Z,99891.19
2019-04-28T05:09:10.633Z,99904.64
2019-04-28T05:11:40.945Z,99894.16
2019-04-28T05:14:12.212Z,99901.05
2019-04-28T05:16:42.800Z,99900.33
2019-04-28T05:19:13.060Z,99904.35
2019-04-28T05:21:43.461Z,99902.27
2019-04-28T05:24:33.420Z,99903.13
2019-04-28T05:27:06.198Z,99908.60
2019-04-28T05:29:36.513Z,99903.81
2019-04-28T05:32:07.155Z,99915.95
2019-04-28T05:34:41.414Z,99908.85
2019-04-28T05:37:10.798Z,99911.24
2019-04-28T05:39:41.413Z,99917.80
2019-04-28T05:42:11.981Z,99919.27
2019-04-28T05:44:42.293Z,99919.80
2019-04-28T05:47:12.565Z,99924.82
2019-04-28T05:50:00.474Z,99923.41
2019-04-28T05:52:35.363Z,99919.33
2019-04-28T05:55:14.531Z,99924.75
2019-04-28T05:57:46.415Z,99912.88
2019-04-28T06:00:21.366Z,99916.02
2019-04-28T06:02:56.817Z,99916.73
2019-04-28T06:05:30.134Z,99928.17
2019-04-28T06:08:07.405Z,99929.02
2019-04-28T06:10:37.638Z,99923.56
2019-04-28T06:13:09.870Z,99926.00
2019-04-28T06:15:39.795Z,99934.69
2019-04-28T06:18:10.601Z,99934.77
2019-04-28T06:20:41.820Z,99938.80
2019-04-28T06:23:12.397Z,99936.00
2019-04-28T06:25:43.067Z,99929.98
2019-04-28T06:28:13.467Z,99924.33
2019-04-28T06:30:43.808Z,99926.17
2019-04-28T06:33:14.220Z,99926.48
2019-04-28T06:35:44.432Z,99919.64
2019-04-28T06:38:14.671Z,99915.89
2019-04-28T06:40:44.887Z,99928.31
2019-04-28T06:43:15.122Z,99927.39
2019-04-28T06:45:45.342Z,99924.66
2019-04-28T06:48:15.789Z,99925.05
2019-04-28T06:50:46.359Z,99924.80
2019-04-28T06:53:16.677Z,99921.30
2019-04-28T06:55:46.917Z,99937.69
2019-04-28T06:58:17.143Z,99932.56
2019-04-28T07:00:47.359Z,99935.13
2019-04-28T07:03:23.225Z,99942.70
2019-04-28T07:05:49.626Z,99947.89
2019-04-28T07:08:19.865Z,99951.73
2019-04-28T07:10:50.483Z,99950.04
2019-04-28T07:13:20.842Z,99962.96
2019-04-28T07:15:51.134Z,99963.29
2019-04-28T07:18:21.310Z,99970.26
2019-04-28T07:20:56.139Z,99973.73
2019-04-28T07:23:26.399Z,99969.02
2019-04-28T07:25:57.022Z,99971.27
2019-04-28T07:28:27.324Z,99974.91
2019-04-28T07:30:57.674Z,99977.38
2019-04-28T07:33:35.803Z,99972.45
2019-04-28T07:36:01.581Z,99981.12
2019-04-28T07:38:32.271Z,99977.13
2019-04-28T07:41:02.491Z,99977.41
2019-04-28T07:43:33.198Z,99980.11
2019-04-28T07:46:05.158Z,99969.44
2019-04-28T07:48:35.631Z,99974.30
2019-04-28T07:51:05.876Z,99985.94
2019-04-28T07:53:49.946Z,99977.48
2019-04-28T07:56:20.526Z,99973.55
2019-04-28T07:58:50.836Z,99972.47
2019-04-28T08:01:21.137Z,99971.66
2019-04-28T08:03:51.806Z,99974.48
2019-04-28T08:06:22.242Z,99974.51
2019-04-28T08:08:52.471Z,99969.89
2019-04-28T08:11:22.680Z,99970.00
2019-04-28T08:13:52.894Z,99976.36
2019-04-28T08:16:23.226Z,99975.23
2019-04-28T08:18:53.481Z,99982.12
2019-04-28T08:21:24.044Z,99975.95
2019-04-28T08:23:54.409Z,99987.52
2019-04-28T08:26:24.970Z,99985.73
2019-04-28T08:28:55.343Z,99988.20
2019-04-28T08:31:27.432Z,99977.55
2019-04-28T08:34:03.019Z,99974.81
2019-04-28T08:36:33.467Z,99985.01
2019-04-28T08:39:05.626Z,99986.22
2019-04-28T08:41:39.534Z,99992.10
2019-04-28T08:44:10.169Z,100004.94
2019-04-28T08:46:40.450Z,100000.03
2019-04-28T08:49:11.112Z,99998.17
2019-04-28T08:51:41.790Z,100004.20
2019-04-28T08:54:12.145Z,100000.80
2019-04-28T08:56:42.570Z,100007.58
2019-04-28T08:59:12.783Z,100022.39
2019-04-28T09:01:49.461Z,100011.09
2019-04-28T09:04:20.135Z,100016.11
2019-04-28T09:06:50.775Z,100009.49
2019-04-28T09:09:21.793Z,100011.05
2019-04-28T09:11:52.321Z,100005.64
2019-04-28T09:14:22.546Z,100016.58
2019-04-28T09:16:55.704Z,100016.04
2019-04-28T09:19:26.746Z,100011.83
2019-04-28T09:21:56.977Z,100011.80
2019-04-28T09:24:27.224Z,100010.99
2019-04-28T09:26:57.476Z,100014.94
2019-04-28T09:29:28.130Z,100005.78
2019-04-28T09:31:58.465Z,100024.22
2019-04-28T09:34:28.827Z,100019.55
2019-04-28T09:36:59.426Z,100023.14
2019-04-28T09:39:47.097Z,100017.69
2019-04-28T09:42:30.928Z,100024.34
2019-04-28T09:45:10.191Z,100031.24
2019-04-28T09:47:40.552Z,100029.96
2019-04-28T09:50:12.467Z,100026.63
2019-04-28T09:52:42.898Z,100030.80
2019-04-28T09:55:13.783Z,100038.49
2019-04-28T09:57:44.041Z,100033.61
2019-04-28T10:00:15.357Z,100036.16
2019-04-28T10:02:45.640Z,100032.45
2019-04-28T10:05:16.111Z,100032.42
2019-04-28T10:07:46.820Z,100031.14
2019-04-28T10:10:17.570Z,100031.44
2019-04-28T10:12:48.250Z,100031.22
2019-04-28T10:15:19.583Z,100032.21
2019-04-28T10:17:50.008Z,100030.19
2019-04-28T10:20:20.855Z,100029.66
2019-04-28T10:22:51.497Z,100029.77
2019-04-28T10:25:22.197Z,100025.58
2019-04-28T10:27:52.551Z,100020.88
2019-04-28T10:30:22.780Z,100032.21
2019-04-28T10:32:53.506Z,100035.02
2019-04-28T10:35:24.156Z,100033.04
2019-04-28T10:37:55.624Z,100029.92
2019-04-28T10:40:39.316Z,100035.20
2019-04-28T10:43:09.604Z,100033.51
2019-04-28T10:45:44.610Z,100029.88
2019-04-28T10:48:15.988Z,100037.41
2019-04-28T10:50:46.286Z,100029.39
2019-04-28T10:53:17.990Z,100035.78
2019-04-28T10:55:48.297Z,100035.06
2019-04-28T10:58:18.932Z,100034.64
2019-04-28T11:00:49.652Z,100032.40
2019-04-28T11:03:20.443Z,100031.55
2019-04-28T11:05:50.771Z,100037.88
2019-04-28T11:08:23.000Z,100037.79
2019-04-28T11:10:54.202Z,100034.78
2019-04-28T11:13:24.786Z,100036.91
2019-04-28T11:15:55.094Z,100039.17
2019-04-28T11:18:25.314Z,100033.89
2019-04-28T11:20:55.802Z,100031.80
2019-04-28T11:23:26.044Z,100033.07
2019-04-28T11:25:56.300Z,100036.48
2019-04-28T11:28:26.923Z,100038.03
2019-04-28T11:30:57.644Z,100038.79
2019-04-28T11:33:29.787Z,100039.08
2019-04-28T11:36:00.007Z,100041.99
2019-04-28T11:38:30.768Z,100039.55
2019-04-28T11:41:01.068Z,100038.98
2019-04-28T11:43:31.762Z,100045.88
2019-04-28T11:46:03.690Z,100044.66
2019-04-28T11:48:33.913Z,100048.69
2019-04-28T11:51:04.338Z,100054.32
2019-04-28T11:53:34.650Z,100056.38
2019-04-28T11:56:05.565Z,100059.67
2019-04-28T11:58:36.027Z,100054.17
2019-04-28T12:01:07.489Z,100058.10
2019-04-28T12:03:38.098Z,100061.36
2019-04-28T12:06:08.392Z,100056.14
2019-04-28T12:08:38.630Z,100053.33
2019-04-28T12:11:28.524Z,100054.21
2019-04-28T12:14:12.358Z,100046.23
2019-04-28T12:17:00.726Z,100052.86
2019-04-28T12:19:32.814Z,100061.80
2019-04-28T12:22:03.757Z,100056.34
2019-04-28T12:24:35.362Z,100060.36
2019-04-28T12:27:06.046Z,100061.94
2019-04-28T12:29:36.357Z,100061.34
2019-04-28T12:32:06.638Z,100060.93
2019-04-28T12:34:36.876Z,100066.88
2019-04-28T12:37:07.098Z,100068.28
2019-04-28T12:39:37.348Z,100066.92
2019-04-28T12:42:07.579Z,100066.16
2019-04-28T12:44:39.306Z,100068.20
2019-04-28T12:47:10.825Z,100053.50
2019-04-28T12:49:43.281Z,100059.30
2019-04-28T12:52:14.948Z,100062.61
2019-04-28T12:54:45.630Z,100063.11
2019-04-28T12:57:17.163Z,100069.32
2019-04-28T13:00:04.414Z,100063.64
2019-04-28T13:02:53.536Z,100064.98
2019-04-28T13:05:24.132Z,100070.73
2019-04-28T13:07:54.723Z,100072.06
2019-04-28T13:10:25.434Z,100065.95
2019-04-28T13:12:56.952Z,100059.72
2019-04-28T13:15:27.199Z,100067.92
2019-04-28T13:17:57.773Z,100061.81
2019-04-28T13:20:28.450Z,100072.80
2019-04-28T13:22:58.873Z,100068.69
2019-04-28T13:25:29.066Z,100062.35
2019-04-28T13:27:59.275Z,100058.72
2019-04-28T13:30:29.715Z,100065.28
2019-04-28T13:33:00.326Z,100063.27
2019-04-28T13:35:30.641Z,100052.23
2019-04-28T13:38:01.211Z,100053.86
2019-04-28T13:40:33.176Z,100050.47
2019-04-28T13:43:04.219Z,100054.02
2019-04-28T13:45:36.133Z,100051.29
2019-04-28T13:48:07.563Z,100050.59
2019-04-28T13:50:39.995Z,100051.68
2019-04-28T13:53:10.713Z,100044.56
2019-04-28T13:55:49.983Z,100042.86
2019-04-28T13:58:22.685Z,100046.11
2019-04-28T14:00:54.623Z,100039.92
2019-04-28T14:03:35.224Z,100050.91
2019-04-28T14:06:12.971Z,100058.88
2019-04-28T14:08:43.345Z,100051.59
2019-04-28T14:11:16.318Z,100041.03
2019-04-28T14:13:46.712Z,100048.14
2019-04-28T14:16:18.685Z,100046.83
2019-04-28T14:18:49.050Z,100051.55
2019-04-28T14:21:19.407Z,100045.75
2019-04-28T14:23:49.982Z,100042.58
2019-04-28T14:26:20.304Z,100049.38
2019-04-28T14:28:50.586Z,100046.41
2019-04-28T14:31:21.261Z,100048.14
2019-04-28T14:33:51.634Z,100046.66
2019-04-28T14:36:21.848Z,100045.06
2019-04-28T14:38:52.154Z,100048.16
2019-04-28T14:41:22.485Z,100045.99
2019-04-28T14:43:52.988Z,100048.30
2019-04-28T14:46:23.774Z,100050.00
2019-04-28T14:48:54.790Z,100050.86
2019-04-28T14:51:25.118Z,100056.57
2019-04-28T14:53:55.775Z,100049.16
2019-04-28T14:56:26.150Z,100055.86
2019-04-28T14:58:57.944Z,100054.31
2019-04-28T15:01:29.875Z,100062.70
2019-04-28T15:04:01.691Z,100056.41
2019-04-28T15:06:33.676Z,100062.52
2019-04-28T15:09:23.677Z,100065.61
2019-04-28T15:11:55.988Z,100058.30
2019-04-28T15:14:26.308Z,100066.80
2019-04-28T15:16:56.882Z,100059.61
2019-04-28T15:19:27.640Z,100065.71
2019-04-28T15:21:59.291Z,100068.80
2019-04-28T15:24:29.918Z,100064.22
2019-04-28T15:27:00.244Z,100065.03
2019-04-28T15:29:32.084Z,100060.45
2019-04-28T15:32:02.799Z,100060.41
2019-04-28T15:34:33.074Z,100055.83
2019-04-28T15:37:10.164Z,100056.11
2019-04-28T15:39:35.704Z,100053.51
2019-04-28T15:42:06.336Z,100053.17
2019-04-28T15:44:36.742Z,100054.36
2019-04-28T15:47:06.965Z,100058.95
2019-04-28T15:49:37.581Z,100051.22
2019-04-28T15:52:09.024Z,100057.64
2019-04-28T15:54:39.624Z,100053.05
2019-04-28T15:57:09.890Z,100050.17
2019-04-28T15:59:40.198Z,100047.29
2019-04-28T16:02:10.521Z,100052.01
2019-04-28T16:04:41.048Z,100041.71
2019-04-28T16:07:23.914Z,100050.23
2019-04-28T16:09:43.251Z,100052.27
2019-04-28T16:12:13.531Z,100039.61
2019-04-28T16:14:44.116Z,100047.41
2019-04-28T16:17:14.423Z,100042.83
2019-04-28T16:19:44.651Z,100045.06
2019-04-28T16:22:16.022Z,100044.67
2019-04-28T16:24:46.342Z,100042.38
2019-04-28T16:27:16.571Z,100042.55
2019-04-28T16:29:47.189Z,100043.27
2019-04-28T16:32:17.819Z,100043.39
2019-04-28T16:34:48.478Z,100038.22
2019-04-28T16:37:19.140Z,100037.98
2019-04-28T16:39:49.515Z,100032.22
2019-04-28T16:42:24.895Z,100038.77
2019-04-28T16:44:59.401Z,100040.84
2019-04-28T16:47:30.004Z,100046.70
2019-04-28T16:50:00.329Z,100044.02
2019-04-28T16:52:30.956Z,100050.41
2019-04-28T16:55:14.774Z,100048.97
2019-04-28T16:58:03.205Z,100047.27
2019-04-28T17:00:53.805Z,100044.54
2019-04-28T17:03:24.047Z,100046.80
2019-04-28T17:05:54.344Z,100045.56
2019-04-28T17:08:24.564Z,100052.90
2019-04-28T17:10:54.928Z,100046.31
2019-04-28T17:13:25.175Z,100049.39
2019-04-28T17:15:55.807Z,100052.27
2019-04-28T17:18:26.159Z,100047.16
2019-04-28T17:20:56.380Z,100048.11
2019-04-28T17:23:27.163Z,100052.17
2019-04-28T17:25:57.794Z,100049.06
2019-04-28T17:28:28.677Z,100048.34
2019-04-28T17:31:00.631Z,100050.05
2019-04-28T17:33:31.428Z,100052.46
2019-04-28T17:36:01.854Z,100045.71
2019-04-28T17:38:32.469Z,100043.22
2019-04-28T17:41:03.185Z,100045.70
2019-04-28T17:43:34.342Z,100055.39
2019-04-28T17:46:05.279Z,100059.84
2019-04-28T17:48:37.173Z,100062.21
2019-04-28T17:51:08.258Z,100076.77
2019-04-28T17:53:38.623Z,100087.70
2019-04-28T17:56:09.040Z,100090.27
2019-04-28T17:58:39.257Z,100089.61
2019-04-28T18:01:11.557Z,100090.27
2019-04-28T18:03:49.622Z,100095.05
2019-04-28T18:06:21.592Z,100099.83
2019-04-28T18:08:51.802Z,100091.57
2019-04-28T18:11:22.191Z,100091.97
2019-04-28T18:13:52.450Z,100097.73
2019-04-28T18:16:39.553Z,100102.12
2019-04-28T18:19:18.808Z,100111.23
2019-04-28T18:21:49.464Z,100118.57
2019-04-28T18:24:19.852Z,100122.56
2019-04-28T18:26:50.229Z,100122.17
2019-04-28T18:29:21.037Z,100127.34
2019-04-28T18:32:08.013Z,100129.45
2019-04-28T18:34:42.570Z,100134.69
2019-04-28T18:37:30.655Z,100128.02
2019-04-28T18:40:05.424Z,100131.67
2019-04-28T18:42:37.395Z,100135.33
2019-04-28T18:45:08.327Z,100134.42
2019-04-28T18:47:38.915Z,100139.14
2019-04-28T18:50:10.338Z,100143.47
2019-04-28T18:52:41.087Z,100135.08
2019-04-28T18:55:12.283Z,100143.86
2019-04-28T18:57:42.944Z,100137.83
2019-04-28T19:00:13.778Z,100136.00
2019-04-28T19:02:46.299Z,100138.50
2019-04-28T19:05:18.099Z,100144.66
2019-04-28T19:07:50.021Z,100138.38
2019-04-28T19:10:33.870Z,100135.75
2019-04-28T19:13:08.241Z,100139.22
2019-04-28T19:15:42.767Z,100136.08
2019-04-28T19:18:15.016Z,100128.67
2019-04-28T19:20:45.669Z,100125.27
2019-04-28T19:23:16.438Z,100120.16
2019-04-28T19:25:47.068Z,100111.89
2019-04-28T19:28:17.329Z,100112.80
2019-04-28T19:30:47.555Z,100114.64
2019-04-28T19:33:18.166Z,100099.31
2019-04-28T19:35:48.466Z,100095.50
2019-04-28T19:38:19.072Z,100101.93
2019-04-28T19:40:49.655Z,100099.04
2019-04-28T19:43:20.757Z,100091.57
2019-04-28T19:45:52.822Z,100091.57
2019-04-28T19:48:23.453Z,100085.81
2019-04-28T19:50:53.945Z,100096.75
2019-04-28T19:53:24.174Z,100098.52
2019-04-28T19:55:56.384Z,100095.90
2019-04-28T19:58:28.680Z,100088.83
2019-04-28T20:01:03.155Z,100081.09
2019-04-28T20:03:33.796Z,100079.32
2019-04-28T20:06:04.343Z,100075.06
2019-04-28T20:08:34.616Z,100071.92
2019-04-28T20:11:04.829Z,100065.03
2019-04-28T20:13:35.316Z,100045.58
2019-04-28T20:16:05.885Z,100046.17
2019-04-28T20:18:36.436Z,100055.20
2019-04-28T20:21:07.132Z,100054.88
2019-04-28T20:23:37.977Z,100055.14
2019-04-28T20:26:08.935Z,100075.58
2019-04-28T20:28:39.245Z,100076.64
2019-04-28T20:31:09.730Z,100079.38
2019-04-28T20:33:40.948Z,100074.54
2019-04-28T20:36:16.485Z,100067.98
2019-04-28T20:38:48.416Z,100066.16
2019-04-28T20:41:29.334Z,100068.65
2019-04-28T20:43:59.993Z,100059.02
2019-04-28T20:46:31.294Z,100045.98
2019-04-28T20:49:01.801Z,100040.86
2019-04-28T20:51:33.649Z,100035.50
2019-04-28T20:54:04.589Z,100023.97
2019-04-28T20:56:35.204Z,100032.80
2019-04-28T20:59:07.261Z,100036.54
2019-04-28T21:01:37.580Z,100040.93
2019-04-28T21:04:07.868Z,100041.25
2019-04-28T21:06:38.554Z,100046.63
2019-04-28T21:09:11.601Z,100030.38
2019-04-28T21:11:41.918Z,100029.78
2019-04-28T21:14:12.170Z,100037.71
2019-04-28T21:16:42.743Z,100044.72
2019-04-28T21:19:13.052Z,100063.14
2019-04-28T21:21:43.717Z,100064.59
2019-04-28T21:24:16.715Z,100080.78
2019-04-28T21:26:47.818Z,100068.42
2019-04-28T21:29:19.176Z,100079.14
2019-04-28T21:31:49.431Z,100078.69
2019-04-28T21:34:20.009Z,100077.95
2019-04-28T21:36:50.479Z,100080.06
2019-04-28T21:39:21.116Z,100080.58
2019-04-28T21:41:51.620Z,100069.83
2019-04-28T21:44:26.555Z,100074.80
2019-04-28T21:47:04.282Z,100080.55
2019-04-28T21:49:37.370Z,100075.20
2019-04-28T21:52:07.638Z,100077.44
2019-04-28T21:54:37.870Z,100068.76
2019-04-28T21:57:08.112Z,100074.69
2019-04-28T21:59:38.861Z,100074.39
2019-04-28T22:02:09.664Z,100071.67
2019-04-28T22:04:41.392Z,100077.37
2019-04-28T22:07:12.021Z,100067.05
2019-04-28T22:09:42.358Z,100064.59
2019-04-28T22:12:14.442Z,100060.11
2019-04-28T22:14:45.305Z,100061.22
2019-04-28T22:17:15.653Z,100046.08
2019-04-28T22:19:46.108Z,100048.64
2019-04-28T22:22:16.789Z,100036.15
2019-04-28T22:24:48.783Z,100030.28
2019-04-28T22:27:20.696Z,100023.27
2019-04-28T22:29:51.501Z,100022.48
2019-04-28T22:32:22.494Z,100034.28
2019-04-28T22:34:53.149Z,100028.45
2019-04-28T22:37:23.548Z,100017.93
2019-04-28T22:39:53.841Z,100014.63
2019-04-28T22:42:24.414Z,100025.11
2019-04-28T22:44:55.243Z,100018.42
2019-04-28T22:47:25.587Z,100022.88
2019-04-28T22:49:56.265Z,100029.73
2019-04-28T22:52:27.054Z,100024.48
2019-04-28T22:54:57.496Z,100026.45
2019-04-28T22:57:47.372Z,100036.80
2019-04-28T23:00:31.211Z,100030.97
2019-04-28T23:03:01.904Z,100031.80
2019-04-28T23:05:32.814Z,100029.18
2019-04-28T23:08:03.344Z,100032.06
2019-04-28T23:10:33.566Z,100021.64
2019-04-28T23:13:04.463Z,100027.48
2019-04-28T23:15:35.955Z,100032.73
2019-04-28T23:18:06.811Z,100025.64
2019-04-28T23:20:38.796Z,100028.53
2019-04-28T23:23:10.335Z,100019.36
2019-04-28T23:25:41.039Z,100017.85
2019-04-28T23:28:11.861Z,100014.50
2019-04-28T23:30:45.936Z,100010.83
2019-04-28T23:33:16.287Z,100009.13
2019-04-28T23:35:46.622Z,100001.78
2019-04-28T23:38:16.849Z,100006.89
2019-04-28T23:40:48.872Z,100006.36
2019-04-28T23:43:21.881Z,100000.45
2019-04-28T23:45:52.222Z,99994.56
2019-04-28T23:48:22.434Z,99996.66
2019-04-28T23:51:10.367Z,99999.53
2019-04-28T23:53:42.237Z,99991.91
2019-04-28T23:56:12.844Z,99985.77
2019-04-28T23:58:44.326Z,99987.08
